createdAt,value
2023-05-03T11:09:18.260Z,18.07
2023-05-03T11:10:18.160Z,18.70
2023-05-03T11:11:18.124Z,19.07
2023-05-03T11:12:18.135Z,19.48
2023-05-03T11:13:18.153Z,19.19
2023-05-03T11:14:18.113Z,18.90
2023-05-03T11:15:18.060Z,18.57
2023-05-03T11:16:18.099Z,18.42
2023-05-03T11:17:18.039Z,18.58
2023-05-03T11:18:18.036Z,18.54
2023-05-03T11:19:18.014Z,18.39
2023-05-03T11:20:18.011Z,18.70
2023-05-03T11:21:17.970Z,19.41
2023-05-03T11:22:17.965Z,19.63
2023-05-03T11:23:17.945Z,19.86
2023-05-03T11:24:17.976Z,19.73
2023-05-03T11:25:17.941Z,19.66
2023-05-03T11:26:17.913Z,20.20
2023-05-03T11:27:17.914Z,20.24
2023-05-03T11:28:17.897Z,20.50
2023-05-03T11:29:17.906Z,20.21
2023-05-03T11:30:17.862Z,20.02
2023-05-03T11:31:17.914Z,19.91
2023-05-03T11:32:17.939Z,19.61
2023-05-03T11:33:17.831Z,19.66
2023-05-03T11:34:17.823Z,19.10
2023-05-03T11:35:17.808Z,19.86
2023-05-03T11:36:17.825Z,20.42
2023-05-03T11:37:17.776Z,20.35
2023-05-03T11:38:17.791Z,20.03
2023-05-03T11:39:18.968Z,20.20
2023-05-03T11:40:17.759Z,20.43
2023-05-03T11:41:17.809Z,20.38
2023-05-03T11:42:17.925Z,20.57
2023-05-03T11:43:17.728Z,21.12
2023-05-03T11:44:18.570Z,21.54
2023-05-03T11:45:17.705Z,22.00
2023-05-03T11:46:17.753Z,22.37
2023-05-03T11:47:17.853Z,21.98
2023-05-03T11:48:17.756Z,22.35
2023-05-03T11:49:17.631Z,22.24
2023-05-03T11:50:17.629Z,21.72
2023-05-03T11:51:17.606Z,21.37
2023-05-03T11:52:17.592Z,21.50
2023-05-03T11:53:17.581Z,22.09
2023-05-03T11:54:25.058Z,22.79
2023-05-03T11:55:17.557Z,22.98
2023-05-03T11:56:17.525Z,23.33
2023-05-03T11:57:17.552Z,23.97
2023-05-03T11:58:17.516Z,23.53
2023-05-03T11:59:17.527Z,23.35
2023-05-03T12:00:17.580Z,23.36
2023-05-03T12:01:17.500Z,22.98
2023-05-03T12:02:17.554Z,22.15
2023-05-03T12:03:17.708Z,21.69
2023-05-03T12:04:17.592Z,22.37
2023-05-03T12:05:18.070Z,22.10
2023-05-03T12:06:17.891Z,22.30
2023-05-03T12:07:19.949Z,22.49
2023-05-03T12:08:18.484Z,22.57
2023-05-03T12:09:18.680Z,23.02
2023-05-03T12:10:21.923Z,23.19
2023-05-03T12:11:18.221Z,23.43
2023-05-03T12:12:19.743Z,22.98
2023-05-03T12:13:17.762Z,23.13
2023-05-03T12:14:17.419Z,22.61
2023-05-03T12:15:17.591Z,22.30
2023-05-03T12:16:18.658Z,21.61
2023-05-03T12:17:19.000Z,21.07
2023-05-03T12:18:19.018Z,20.39
2023-05-03T12:19:17.656Z,20.74
2023-05-03T12:22:24.992Z,22.55
2023-05-03T12:23:17.399Z,22.03
2023-05-03T12:24:20.052Z,22.14
2023-05-03T12:25:20.110Z,22.58
2023-05-03T12:26:18.861Z,22.54
2023-05-03T12:27:19.385Z,23.00
2023-05-03T12:28:20.278Z,23.01
2023-05-03T12:29:19.272Z,23.05
2023-05-03T12:30:17.932Z,22.45
2023-05-03T12:31:18.065Z,21.98
2023-05-03T12:32:17.152Z,22.07
2023-05-03T12:33:17.628Z,22.18
2023-05-03T12:34:31.520Z,22.62
2023-05-03T12:35:19.746Z,23.05
2023-05-03T12:36:18.527Z,23.55
2023-05-03T12:37:17.598Z,23.28
2023-05-03T12:38:17.849Z,23.01
2023-05-03T12:39:17.186Z,22.70
2023-05-03T12:40:32.382Z,22.40
2023-05-03T12:41:32.414Z,21.84
2023-05-03T12:42:17.034Z,22.58
2023-05-03T12:43:16.997Z,23.19
2023-05-03T12:44:17.396Z,23.70
2023-05-03T12:45:20.860Z,23.51
2023-05-03T12:46:32.304Z,23.02
2023-05-03T12:48:17.129Z,22.95
2023-05-03T12:49:17.123Z,23.19
2023-05-03T12:50:18.823Z,23.28
2023-05-03T12:51:20.356Z,23.61
2023-05-03T12:53:17.783Z,23.60
2023-05-03T12:54:19.075Z,23.88
2023-05-03T12:55:18.431Z,24.27
2023-05-03T12:56:17.062Z,24.32
2023-05-03T12:57:22.658Z,24.30
2023-05-03T12:59:39.205Z,23.75
2023-05-03T13:00:20.968Z,23.97
2023-05-03T13:02:05.392Z,23.35
2023-05-03T13:03:19.831Z,22.94
2023-05-03T13:04:41.404Z,23.36
2023-05-03T13:05:29.655Z,22.65
2023-05-03T13:06:16.937Z,22.31
2023-05-03T13:07:17.148Z,22.46
2023-05-03T13:08:21.408Z,22.42
2023-05-03T13:09:20.079Z,22.42
2023-05-03T13:11:16.663Z,23.97
2023-05-03T13:12:16.718Z,23.07
2023-05-03T13:13:16.610Z,23.09
2023-05-03T13:14:16.585Z,22.57
2023-05-03T13:15:16.586Z,22.85
2023-05-03T13:16:16.649Z,23.39
2023-05-03T13:17:16.655Z,24.35
2023-05-03T13:18:16.588Z,24.12
2023-05-03T13:19:16.564Z,23.69
2023-05-03T13:20:16.522Z,23.61
2023-05-03T13:21:16.536Z,23.42
2023-05-03T13:22:16.533Z,23.87
2023-05-03T13:23:16.514Z,24.49
2023-05-03T13:24:16.493Z,24.46
2023-05-03T13:25:16.504Z,24.21
2023-05-03T13:26:16.481Z,24.08
2023-05-03T13:27:16.482Z,23.70
2023-05-03T13:28:16.452Z,23.58
2023-05-03T13:29:16.452Z,24.12
2023-05-03T13:30:16.437Z,24.45
2023-05-03T13:31:16.438Z,25.15
2023-05-03T13:32:16.555Z,25.25
2023-05-03T13:33:16.484Z,25.32
2023-05-03T13:34:16.384Z,25.47
2023-05-03T13:35:16.432Z,25.28
2023-05-03T13:36:16.381Z,24.95
2023-05-03T13:37:16.383Z,24.61
2023-05-03T13:38:16.360Z,24.09
2023-05-03T13:39:16.507Z,23.88
2023-05-03T13:40:16.342Z,23.93
2023-05-03T13:41:16.324Z,23.93
2023-05-03T13:42:16.345Z,24.16
2023-05-03T13:43:16.342Z,24.35
2023-05-03T13:44:16.313Z,24.37
2023-05-03T13:45:16.316Z,24.16
2023-05-03T13:46:16.383Z,24.96
2023-05-03T13:47:16.303Z,25.24
2023-05-03T13:48:18.468Z,25.00
2023-05-03T13:49:16.313Z,24.81
2023-05-03T13:50:16.245Z,24.57
2023-05-03T13:51:16.266Z,24.30
2023-05-03T13:52:16.273Z,24.21
2023-05-03T13:53:16.262Z,24.57
2023-05-03T13:54:16.236Z,24.34
2023-05-03T13:55:16.213Z,24.03
2023-05-03T13:56:16.206Z,23.97
2023-05-03T13:57:16.228Z,24.49
2023-05-03T13:58:16.197Z,24.53
2023-05-03T13:59:16.189Z,24.77
2023-05-03T14:00:16.190Z,24.60
2023-05-03T14:01:16.227Z,25.18
2023-05-03T14:02:16.275Z,25.79
2023-05-03T14:03:16.275Z,25.33
2023-05-03T14:04:16.193Z,26.09
2023-05-03T14:05:16.179Z,26.06
2023-05-03T14:06:16.139Z,25.65
2023-05-03T14:07:16.129Z,24.20
2023-05-03T14:08:16.146Z,24.13
2023-05-03T14:09:16.117Z,24.53
2023-05-03T14:10:16.130Z,25.09
2023-05-03T14:11:16.143Z,25.40
2023-05-03T14:12:16.123Z,24.58
2023-05-03T14:13:16.152Z,24.35
2023-05-03T14:14:16.078Z,24.16
2023-05-03T14:15:16.076Z,23.84
2023-05-03T14:16:21.821Z,24.15
2023-05-03T14:17:16.146Z,24.24
2023-05-03T14:18:16.120Z,24.87
2023-05-03T14:19:16.128Z,24.96
2023-05-03T14:20:16.045Z,25.51
2023-05-03T14:21:16.065Z,25.23
2023-05-03T14:22:16.031Z,25.28
2023-05-03T14:23:16.070Z,24.50
2023-05-03T14:24:16.045Z,24.20
2023-05-03T14:25:16.041Z,24.43
2023-05-03T14:26:16.030Z,24.80
2023-05-03T14:27:16.015Z,25.32
2023-05-03T14:28:15.996Z,25.75
2023-05-03T14:29:16.028Z,26.29
2023-05-03T14:30:15.993Z,26.25
2023-05-03T14:31:16.042Z,25.45
2023-05-03T14:32:15.997Z,25.32
2023-05-03T14:33:16.034Z,24.95
2023-05-03T14:34:16.001Z,24.42
2023-05-03T14:35:15.988Z,24.49
2023-05-03T14:36:15.953Z,25.00
2023-05-03T14:37:15.954Z,25.38
2023-05-03T14:38:15.972Z,26.18
2023-05-03T14:39:15.957Z,25.39
2023-05-03T14:40:15.931Z,24.93
2023-05-03T14:41:15.954Z,25.05
2023-05-03T14:42:15.951Z,25.24
2023-05-03T14:43:15.960Z,25.39
2023-05-03T14:44:15.922Z,26.02
2023-05-03T14:45:15.924Z,25.75
2023-05-03T14:46:15.944Z,25.80
2023-05-03T14:47:15.924Z,25.52
2023-05-03T14:48:15.893Z,25.08
2023-05-03T14:49:15.928Z,25.46
2023-05-03T14:50:15.895Z,25.42
2023-05-03T14:51:15.914Z,25.82
2023-05-03T14:52:15.900Z,25.65
2023-05-03T14:53:15.905Z,25.50
2023-05-03T14:54:15.877Z,25.67
2023-05-03T14:55:15.888Z,25.99
2023-05-03T14:56:15.898Z,26.09
2023-05-03T14:57:15.882Z,26.33
2023-05-03T14:58:16.079Z,25.20
2023-05-03T14:59:15.888Z,24.96
2023-05-03T15:00:15.865Z,25.30
2023-05-03T15:01:15.893Z,25.17
2023-05-03T15:02:15.860Z,25.73
2023-05-03T15:03:15.890Z,26.06
2023-05-03T15:04:15.864Z,26.65
2023-05-03T15:05:15.832Z,27.14
2023-05-03T15:06:15.839Z,27.65
2023-05-03T15:07:15.866Z,28.15
2023-05-03T15:08:15.851Z,27.57
2023-05-03T15:09:15.831Z,27.69
2023-05-03T15:10:15.809Z,26.76
2023-05-03T15:11:15.828Z,25.61
2023-05-03T15:12:15.824Z,25.58
2023-05-03T15:13:16.135Z,26.45
2023-05-03T15:14:15.912Z,26.51
2023-05-03T15:15:15.817Z,25.38
2023-05-03T15:16:15.834Z,25.40
2023-05-03T15:17:15.866Z,25.47
2023-05-03T15:18:15.845Z,25.92
2023-05-03T15:19:15.834Z,26.63
2023-05-03T15:20:15.793Z,27.02
2023-05-03T15:21:15.777Z,26.92
2023-05-03T15:22:15.785Z,26.82
2023-05-03T15:23:15.796Z,26.87
2023-05-03T15:24:15.788Z,27.06
2023-05-03T15:25:15.814Z,27.50
2023-05-03T15:26:15.756Z,27.44
2023-05-03T15:27:15.774Z,27.06
2023-05-03T15:28:15.765Z,27.19
2023-05-03T15:29:15.804Z,26.77
2023-05-03T15:30:15.777Z,26.39
2023-05-03T15:31:15.810Z,26.33
2023-05-03T15:32:15.749Z,26.51
2023-05-03T15:33:15.805Z,27.09
2023-05-03T15:34:15.735Z,26.01
2023-05-03T15:35:15.739Z,25.30
2023-05-03T15:36:15.757Z,25.55
2023-05-03T15:37:15.760Z,24.98
2023-05-03T15:38:15.842Z,25.42
2023-05-03T15:39:15.774Z,25.55
2023-05-03T15:40:15.723Z,25.67
2023-05-03T15:41:15.762Z,25.47
2023-05-03T15:42:15.704Z,25.36
2023-05-03T15:43:15.706Z,25.54
2023-05-03T15:44:15.741Z,25.46
2023-05-03T15:45:15.735Z,25.35
2023-05-03T15:46:15.849Z,24.99
2023-05-03T15:47:15.714Z,24.90
2023-05-03T15:48:15.792Z,24.73
2023-05-03T15:49:15.694Z,25.14
2023-05-03T15:50:15.796Z,25.32
2023-05-03T15:51:15.705Z,25.50
2023-05-03T15:52:15.686Z,25.80
2023-05-03T15:53:15.702Z,25.67
2023-05-03T15:54:15.690Z,26.17
2023-05-03T15:55:15.682Z,25.83
2023-05-03T15:56:15.694Z,26.13
2023-05-03T15:57:15.672Z,26.91
2023-05-03T15:58:15.803Z,27.24
2023-05-03T15:59:15.677Z,27.27
2023-05-03T16:00:15.675Z,27.54
2023-05-03T16:01:15.782Z,27.44
2023-05-03T16:02:15.654Z,27.85
2023-05-03T16:03:15.741Z,27.77
2023-05-03T16:04:15.688Z,26.84
2023-05-03T16:05:15.702Z,26.39
2023-05-03T16:06:15.692Z,26.60
2023-05-03T16:07:15.668Z,26.44
2023-05-03T16:08:15.646Z,26.20
2023-05-03T16:09:15.704Z,25.36
2023-05-03T16:10:15.661Z,25.45
2023-05-03T16:11:15.717Z,25.33
2023-05-03T16:12:15.715Z,25.21
2023-05-03T16:13:15.904Z,25.54
2023-05-03T16:14:15.724Z,25.69
2023-05-03T16:15:15.773Z,25.46
2023-05-03T16:16:15.741Z,25.54
2023-05-03T16:17:15.780Z,25.32
2023-05-03T16:18:15.745Z,24.24
2023-05-03T16:19:15.635Z,24.05
2023-05-03T16:20:15.629Z,23.97
2023-05-03T16:21:15.634Z,24.84
2023-05-03T16:22:15.651Z,24.80
2023-05-03T16:23:15.612Z,24.73
2023-05-03T16:24:15.609Z,24.28
2023-05-03T16:25:15.615Z,24.12
2023-05-03T16:26:15.622Z,23.88
2023-05-03T16:27:15.623Z,24.39
2023-05-03T16:28:15.617Z,24.76
2023-05-03T16:29:15.608Z,25.32
2023-05-03T16:30:15.601Z,25.92
2023-05-03T16:31:15.688Z,26.07
2023-05-03T16:32:15.624Z,25.99
2023-05-03T16:33:15.612Z,25.69
2023-05-03T16:34:15.592Z,25.85
2023-05-03T16:35:15.606Z,25.47
2023-05-03T16:36:15.593Z,25.14
2023-05-03T16:37:15.559Z,24.71
2023-05-03T16:38:15.596Z,24.80
2023-05-03T16:39:15.559Z,23.75
2023-05-03T16:40:15.587Z,23.54
2023-05-03T16:41:15.568Z,24.10
2023-05-03T16:42:15.576Z,24.50
2023-05-03T16:43:15.603Z,23.94
2023-05-03T16:44:15.550Z,23.84
2023-05-03T16:45:15.540Z,23.68
2023-05-03T16:46:15.606Z,23.31
2023-05-03T16:47:15.535Z,23.00
2023-05-03T16:48:15.663Z,22.72
2023-05-03T16:49:15.522Z,22.92
2023-05-03T16:50:15.552Z,22.80
2023-05-03T16:51:15.522Z,22.82
2023-05-03T16:52:15.560Z,22.73
2023-05-03T16:53:15.536Z,22.58
2023-05-03T16:54:15.507Z,22.57
2023-05-03T16:55:15.514Z,22.37
2023-05-03T16:56:15.520Z,22.51
2023-05-03T16:57:15.490Z,22.55
2023-05-03T16:58:15.509Z,22.58
2023-05-03T16:59:15.488Z,22.57
2023-05-03T17:00:15.495Z,22.57
2023-05-03T17:01:15.507Z,22.57
2023-05-03T17:02:15.507Z,22.43
2023-05-03T17:03:15.708Z,22.17
2023-05-03T17:04:15.488Z,22.00
2023-05-03T17:05:15.426Z,21.71
2023-05-03T17:06:15.458Z,21.53
2023-05-03T17:07:15.438Z,21.58
2023-05-03T17:08:15.451Z,21.61
2023-05-03T17:09:15.443Z,21.59
2023-05-03T17:10:15.398Z,21.64
2023-05-03T17:11:15.405Z,21.71
2023-05-03T17:12:15.376Z,21.56
2023-05-03T17:13:15.413Z,21.47
2023-05-03T17:17:01.523Z,21.64
2023-05-03T17:18:04.220Z,21.62
